Yamato — JD2252 — position and weather

sailwx.info

Track history (hours):
 
Tides and Currents Weather Stations Pressure Air Temp Water Temp Dewpoint Dewpoint Depression Visibility Wind Speed Wind Dir Waves Ship Positions

Yamato

Last reported at 2015-Feb-28 00:33 UTC. Time now 2015-Feb-28 00:47 UTC.
Position N 35°27' E 139°39'.

Length 40 m; draft 3.6 m.

Type: Tug. MMSI: 431101141.

Date/timePositionNaut miles runAvg speedWind from/ knotsBaromVisibWave heightAir tempDewpointWater temp
2015-Feb-28 00:33N 35°27' E 139°39'0 0.0
2015-Feb-27 23:34N 35°27' E 139°39'1 1.1
2015-Feb-27 22:33N 35°27' E 139°41'2 1.7
2015-Feb-27 21:33N 35°26' E 139°42'2 2.3
2015-Feb-27 20:33N 35°27' E 139°40'0 0.0
2015-Feb-27 19:34N 35°27' E 139°40'0 0.0
2015-Feb-27 18:33N 35°27' E 139°40'0 0.0
2015-Feb-27 17:33N 35°27' E 139°40'0 0.0
2015-Feb-27 16:34N 35°27' E 139°40'0 0.0
2015-Feb-27 15:34N 35°27' E 139°40'0 0.0
2015-Feb-27 14:33N 35°27' E 139°40'0 0.0
2015-Feb-27 13:34N 35°27' E 139°40'0 0.0
2015-Feb-27 12:33N 35°27' E 139°40'0 0.0
2015-Feb-27 11:33N 35°27' E 139°40'0 0.0
2015-Feb-27 10:34N 35°27' E 139°40'0 0.0
2015-Feb-27 09:33N 35°27' E 139°40'0 0.0
2015-Feb-27 08:34N 35°27' E 139°40'0 0.0
2015-Feb-27 07:33N 35°27' E 139°40'1 1.5
2015-Feb-27 06:33N 35°28' E 139°41'1 1.2
2015-Feb-27 05:33N 35°28' E 139°42'0 0.0
2015-Feb-27 04:33N 35°28' E 139°42'0 0.0
2015-Feb-27 03:33N 35°28' E 139°42'0 0.0
2015-Feb-27 02:33N 35°28' E 139°42'0 0.0
2015-Feb-27 01:33N 35°28' E 139°42'5 4.6
2015-Feb-27 00:33N 35°31' E 139°46'3 2.8
2015-Feb-26 23:33N 35°28' E 139°47'6 6.4
2015-Feb-26 22:33N 35°29' E 139°39'3 3.5
2015-Feb-26 21:33N 35°26' E 139°42'2 2.3
2015-Feb-26 20:33N 35°27' E 139°40'0 0.1
2015-Feb-26 19:34N 35°27' E 139°40'0 0.0
2015-Feb-26 18:33N 35°27' E 139°40'0 0.0
2015-Feb-26 17:34N 35°27' E 139°40'0 0.0
2015-Feb-26 16:34N 35°27' E 139°40'0 0.0
2015-Feb-26 15:34N 35°27' E 139°40'0 0.0
2015-Feb-26 14:33N 35°27' E 139°40'0 0.0
2015-Feb-26 13:33N 35°27' E 139°40'0 0.0
2015-Feb-26 12:33N 35°27' E 139°40'0 0.0
2015-Feb-26 11:33N 35°27' E 139°40'0 0.0
2015-Feb-26 10:33N 35°27' E 139°40'0 0.0
2015-Feb-26 09:33N 35°27' E 139°40'7 6.6
2015-Feb-26 08:33N 35°31' E 139°46'0 0.0
2015-Feb-26 07:33N 35°31' E 139°46'2 2.4
2015-Feb-26 06:33N 35°29' E 139°48'2 1.6
2015-Feb-26 05:33N 35°29' E 139°46'0 0.0
2015-Feb-26 04:33N 35°29' E 139°46'0 0.0
2015-Feb-26 03:33N 35°29' E 139°46'1 1.0
2015-Feb-26 02:31N 35°29' E 139°44'1 1.3
2015-Feb-26 01:33N 35°28' E 139°45'1 0.8
2015-Feb-26 00:33N 35°29' E 139°46'5 0.8
2015-Feb-25 18:16N 35°27' E 139°40'0 0.0
2015-Feb-25 17:34N 35°27' E 139°40'0 0.0
2015-Feb-25 16:34N 35°27' E 139°40'0 0.0
2015-Feb-25 15:34N 35°27' E 139°40'0 0.0
2015-Feb-25 14:34N 35°27' E 139°40'0 0.0
2015-Feb-25 13:34N 35°27' E 139°40'0 0.0
2015-Feb-25 12:34N 35°27' E 139°40'0 0.0
2015-Feb-25 11:33N 35°27' E 139°40'0 0.0
2015-Feb-25 10:33N 35°27' E 139°40'0 0.0
2015-Feb-25 09:33N 35°27' E 139°40'0 0.0
2015-Feb-25 08:34N 35°27' E 139°40'0 0.0
2015-Feb-25 07:33N 35°27' E 139°40'0 0.0
2015-Feb-25 06:33N 35°27' E 139°40'0 0.0
2015-Feb-25 05:33N 35°27' E 139°40'0 0.0
2015-Feb-25 04:33N 35°27' E 139°40'0 0.0
2015-Feb-25 03:33N 35°27' E 139°40'0 0.0
2015-Feb-25 02:33N 35°27' E 139°40'0 0.0
2015-Feb-25 01:33N 35°27' E 139°40'0 0.0
2015-Feb-25 00:33N 35°27' E 139°40'0 0.1
2015-Feb-24 23:33N 35°27' E 139°40'3 2.5
2015-Feb-24 22:33N 35°26' E 139°42'2 2.0
2015-Feb-24 21:33N 35°28' E 139°44'2 2.1
2015-Feb-24 20:33N 35°27' E 139°42'1 1.3
2015-Feb-24 19:33N 35°28' E 139°41'0 0.0
2015-Feb-24 18:33N 35°28' E 139°41'0 0.0
2015-Feb-24 17:33N 35°28' E 139°41'0 0.0
2015-Feb-24 16:33N 35°28' E 139°41'0 0.0
2015-Feb-24 15:33N 35°28' E 139°41'1 1.2
2015-Feb-24 14:33N 35°28' E 139°42'1 1.0
2015-Feb-24 13:33N 35°27' E 139°42'0 0.0
2015-Feb-24 12:33N 35°27' E 139°42'0 0.0
2015-Feb-24 11:33N 35°27' E 139°42'1 0.7
2015-Feb-24 10:33N 35°28' E 139°42'0 0.4
2015-Feb-24 09:33N 35°29' E 139°42'2 1.8
2015-Feb-24 08:33N 35°27' E 139°42'0 0.0
2015-Feb-24 07:33N 35°27' E 139°42'2 2.0
2015-Feb-24 06:33N 35°25' E 139°41'2 2.0
2015-Feb-24 05:33N 35°27' E 139°39'0 0.0
2015-Feb-24 04:33N 35°27' E 139°39'0 0.0
2015-Feb-24 03:33N 35°27' E 139°39'0 0.0
2015-Feb-24 02:33N 35°27' E 139°39'0 0.0
2015-Feb-24 01:33N 35°27' E 139°39'0 0.0
2015-Feb-24 00:33N 35°27' E 139°39'0 0.0
2015-Feb-23 23:33N 35°27' E 139°39'2 1.5
2015-Feb-23 22:33N 35°27' E 139°41'1 1.4
2015-Feb-23 21:33N 35°27' E 139°39'1 0.1
2015-Feb-23 04:09N 35°27' E 139°41'1 1.8
2015-Feb-23 03:33N 35°28' E 139°40'2 1.8
2015-Feb-23 02:33N 35°27' E 139°42'0 0.0
2015-Feb-23 01:33N 35°27' E 139°42'0 0.0
2015-Feb-23 00:33N 35°27' E 139°42'0 0.0
2015-Feb-22 23:33N 35°27' E 139°42'13 9.1
2015-Feb-22 22:07N 35°30' E 139°58'8 9.9
2015-Feb-22 21:20N 35°27' E 139°49'8 9.8
2015-Feb-22 20:33N 35°27' E 139°40'0 0.3
2015-Feb-22 19:33N 35°27' E 139°40'0 0.0
2015-Feb-22 18:33N 35°27' E 139°40'0 0.0
2015-Feb-22 17:33N 35°27' E 139°40'0 0.0
2015-Feb-22 16:33N 35°27' E 139°40'0 0.0
2015-Feb-22 15:33N 35°27' E 139°40'0 0.0
2015-Feb-22 14:33N 35°27' E 139°40'0 0.0
2015-Feb-22 13:33N 35°27' E 139°40'0 0.0
2015-Feb-22 12:33N 35°27' E 139°40'0 0.0
2015-Feb-22 11:33N 35°27' E 139°40'0 0.0
2015-Feb-22 10:33N 35°27' E 139°40'0 0.0
2015-Feb-22 09:33N 35°27' E 139°40'0 0.0
2015-Feb-22 08:32N 35°27' E 139°40'0 0.0
2015-Feb-22 07:33N 35°27' E 139°40'1 1.2
2015-Feb-22 06:33N 35°28' E 139°40'6 5.5
2015-Feb-22 05:33N 35°31' E 139°46'1 0.3
2015-Feb-22 03:12N 35°30' E 139°46'0 0.1
2015-Feb-22 02:33N 35°30' E 139°46'0 0.0
2015-Feb-22 01:30N 35°30' E 139°46'0 0.5
2015-Feb-22 00:33N 35°31' E 139°46'1 0.7
2015-Feb-21 23:33N 35°31' E 139°46'5 4.8
2015-Feb-21 22:33N 35°28' E 139°41'2 2.0
2015-Feb-21 21:33N 35°27' E 139°40'0 0.0
2015-Feb-21 20:33N 35°27' E 139°40'0 0.0
2015-Feb-21 19:34N 35°27' E 139°40'0 0.0
2015-Feb-21 18:33N 35°27' E 139°40'0 0.0
2015-Feb-21 17:33N 35°27' E 139°40'0 0.0
2015-Feb-21 16:33N 35°27' E 139°40'0 0.0
2015-Feb-21 15:34N 35°27' E 139°40'0 0.0
2015-Feb-21 14:33N 35°27' E 139°40'0 0.0
2015-Feb-21 13:33N 35°27' E 139°40'0 0.0
2015-Feb-21 12:34N 35°27' E 139°40'0 0.0
2015-Feb-21 11:34N 35°27' E 139°40'0 0.0
2015-Feb-21 10:33N 35°27' E 139°40'0 0.0
2015-Feb-21 09:34N 35°27' E 139°40'0 0.0
2015-Feb-21 08:34N 35°27' E 139°40'0 0.0
2015-Feb-21 07:34N 35°27' E 139°40'0 0.0
2015-Feb-21 06:34N 35°27' E 139°40'0 0.0
2015-Feb-21 05:33N 35°27' E 139°40'0 0.0
2015-Feb-21 04:33N 35°27' E 139°40'0 0.0
2015-Feb-21 03:34N 35°27' E 139°40'0 0.0
2015-Feb-21 02:34N 35°27' E 139°40'0 0.0
2015-Feb-21 01:34N 35°27' E 139°40'0 0.0
2015-Feb-21 00:34N 35°27' E 139°40'0 0.0
2015-Feb-20 23:34N 35°27' E 139°40'1 0.5
2015-Feb-20 22:34N 35°27' E 139°39'3 2.5
2015-Feb-20 21:34N 35°26' E 139°42'0 0.4
2015-Feb-20 20:34N 35°27' E 139°42'0 0.0
2015-Feb-20 19:34N 35°27' E 139°42'1 1.4
2015-Feb-20 18:34N 35°27' E 139°40'1 0.6
2015-Feb-20 17:33N 35°26' E 139°41'1 0.8
2015-Feb-20 16:34N 35°26' E 139°42'0 0.0
2015-Feb-20 15:33N 35°26' E 139°42'0 0.0
2015-Feb-20 14:34N 35°26' E 139°42'0 0.0
2015-Feb-20 13:34N 35°26' E 139°42'0 0.0
2015-Feb-20 12:33N 35°26' E 139°42'0 0.0
2015-Feb-20 11:34N 35°26' E 139°42'0 0.3
2015-Feb-20 10:33N 35°26' E 139°41'2 2.2
2015-Feb-20 09:34N 35°27' E 139°39'2 2.1
2015-Feb-20 08:33N 35°28' E 139°42'1 1.4
2015-Feb-20 07:34N 35°27' E 139°40'1 0.7
2015-Feb-20 06:34N 35°27' E 139°40'0 0.0
2015-Feb-20 05:34N 35°27' E 139°40'0 0.0
2015-Feb-20 04:33N 35°27' E 139°40'0 0.0
2015-Feb-20 03:33N 35°27' E 139°40'0 0.0
2015-Feb-20 02:34N 35°27' E 139°40'0 0.0
2015-Feb-20 01:34N 35°27' E 139°40'0 0.0
2015-Feb-20 00:33N 35°27' E 139°40'0 0.0
2015-Feb-19 23:33N 35°27' E 139°40'0 0.0
2015-Feb-19 22:34N 35°27' E 139°40'0 0.0
2015-Feb-19 21:34N 35°27' E 139°40'0 0.0
2015-Feb-19 20:34N 35°27' E 139°40'0 0.0
2015-Feb-19 19:34N 35°27' E 139°40'0 0.0
2015-Feb-19 18:34N 35°27' E 139°40'0 0.0
2015-Feb-19 17:33N 35°27' E 139°40'0 0.0
2015-Feb-19 16:34N 35°27' E 139°40'0 0.0
2015-Feb-19 15:33N 35°27' E 139°40'0 0.0
2015-Feb-19 14:33N 35°27' E 139°40'0 0.0
2015-Feb-19 13:34N 35°27' E 139°40'0 0.0
2015-Feb-19 12:34N 35°27' E 139°40'0 0.0
2015-Feb-19 11:34N 35°27' E 139°40'0 0.0
2015-Feb-19 10:34N 35°27' E 139°40'0 0.0
2015-Feb-19 09:34N 35°27' E 139°40'0 0.0
2015-Feb-19 08:34N 35°27' E 139°40'0 0.0
2015-Feb-19 07:33N 35°27' E 139°40'1 0.6
2015-Feb-19 06:33N 35°27' E 139°40'0 0.4
2015-Feb-19 05:33N 35°28' E 139°41'0 0.0
2015-Feb-19 04:33N 35°28' E 139°41'0 0.0
2015-Feb-19 03:33N 35°28' E 139°41'0 0.0
2015-Feb-19 02:33N 35°28' E 139°41'0 0.0
2015-Feb-19 01:34N 35°28' E 139°41'0 0.0
2015-Feb-19 00:33N 35°28' E 139°41'1 1.5
2015-Feb-18 23:33N 35°27' E 139°39'3 3.2
2015-Feb-18 22:33N 35°26' E 139°42'2 2.3
2015-Feb-18 21:33N 35°27' E 139°40'0 0.0
2015-Feb-18 20:33N 35°27' E 139°40'0 0.0
2015-Feb-18 19:33N 35°27' E 139°40'0 0.0
2015-Feb-18 18:33N 35°27' E 139°40'0 0.0
2015-Feb-18 17:33N 35°27' E 139°40'0 0.0
2015-Feb-18 16:33N 35°27' E 139°40'0 0.0
2015-Feb-18 15:33N 35°27' E 139°40'0 0.0
2015-Feb-18 14:33N 35°27' E 139°40'0 0.0
2015-Feb-18 13:33N 35°27' E 139°40'0 0.0
2015-Feb-18 12:33N 35°27' E 139°40'0 0.0
2015-Feb-18 11:33N 35°27' E 139°40'0 0.0
2015-Feb-18 10:33N 35°27' E 139°40'0 0.0
2015-Feb-18 09:33N 35°27' E 139°40'0 0.0
2015-Feb-18 08:33N 35°27' E 139°40'0 0.0
2015-Feb-18 07:33N 35°27' E 139°40'0 0.0
2015-Feb-18 06:33N 35°27' E 139°40'2 1.6
2015-Feb-18 05:33N 35°27' E 139°41'10 9.9
2015-Feb-18 04:33N 35°17' E 139°41'0 0.2
2015-Feb-18 03:33N 35°16' E 139°41'0 0.0
2015-Feb-18 02:30N 35°16' E 139°41'0 0.0
2015-Feb-18 01:25N 35°16' E 139°41'  
Track history (hours):
 
Tides and Currents Weather Stations Pressure Air Temp Water Temp Dewpoint Dewpoint Depression Visibility Wind Speed Wind Dir Waves Ship Positions

Yamato

Last reported at 2015-Feb-28 00:33 UTC. Time now 2015-Feb-28 00:47 UTC.
Position N 35°27' E 139°39'.

Length 40 m; draft 3.6 m.

Type: Tug. MMSI: 431101141.

Date/timePositionNaut miles runAvg speedWind from/ knotsBaromVisibWave heightAir tempDewpointWater temp
2015-Feb-28 00:33N 35°27' E 139°39'0 0.0
2015-Feb-27 23:34N 35°27' E 139°39'1 1.1
2015-Feb-27 22:33N 35°27' E 139°41'2 1.7
2015-Feb-27 21:33N 35°26' E 139°42'2 2.3
2015-Feb-27 20:33N 35°27' E 139°40'0 0.0
2015-Feb-27 19:34N 35°27' E 139°40'0 0.0
2015-Feb-27 18:33N 35°27' E 139°40'0 0.0
2015-Feb-27 17:33N 35°27' E 139°40'0 0.0
2015-Feb-27 16:34N 35°27' E 139°40'0 0.0
2015-Feb-27 15:34N 35°27' E 139°40'0 0.0
2015-Feb-27 14:33N 35°27' E 139°40'0 0.0
2015-Feb-27 13:34N 35°27' E 139°40'0 0.0
2015-Feb-27 12:33N 35°27' E 139°40'0 0.0
2015-Feb-27 11:33N 35°27' E 139°40'0 0.0
2015-Feb-27 10:34N 35°27' E 139°40'0 0.0
2015-Feb-27 09:33N 35°27' E 139°40'0 0.0
2015-Feb-27 08:34N 35°27' E 139°40'0 0.0
2015-Feb-27 07:33N 35°27' E 139°40'1 1.5
2015-Feb-27 06:33N 35°28' E 139°41'1 1.2
2015-Feb-27 05:33N 35°28' E 139°42'0 0.0
2015-Feb-27 04:33N 35°28' E 139°42'0 0.0
2015-Feb-27 03:33N 35°28' E 139°42'0 0.0
2015-Feb-27 02:33N 35°28' E 139°42'0 0.0
2015-Feb-27 01:33N 35°28' E 139°42'5 4.6
2015-Feb-27 00:33N 35°31' E 139°46'3 2.8
2015-Feb-26 23:33N 35°28' E 139°47'6 6.4
2015-Feb-26 22:33N 35°29' E 139°39'3 3.5
2015-Feb-26 21:33N 35°26' E 139°42'2 2.3
2015-Feb-26 20:33N 35°27' E 139°40'0 0.1
2015-Feb-26 19:34N 35°27' E 139°40'0 0.0
2015-Feb-26 18:33N 35°27' E 139°40'0 0.0
2015-Feb-26 17:34N 35°27' E 139°40'0 0.0
2015-Feb-26 16:34N 35°27' E 139°40'0 0.0
2015-Feb-26 15:34N 35°27' E 139°40'0 0.0
2015-Feb-26 14:33N 35°27' E 139°40'0 0.0
2015-Feb-26 13:33N 35°27' E 139°40'0 0.0
2015-Feb-26 12:33N 35°27' E 139°40'0 0.0
2015-Feb-26 11:33N 35°27' E 139°40'0 0.0
2015-Feb-26 10:33N 35°27' E 139°40'0 0.0
2015-Feb-26 09:33N 35°27' E 139°40'7 6.6
2015-Feb-26 08:33N 35°31' E 139°46'0 0.0
2015-Feb-26 07:33N 35°31' E 139°46'2 2.4
2015-Feb-26 06:33N 35°29' E 139°48'2 1.6
2015-Feb-26 05:33N 35°29' E 139°46'0 0.0
2015-Feb-26 04:33N 35°29' E 139°46'0 0.0
2015-Feb-26 03:33N 35°29' E 139°46'1 1.0
2015-Feb-26 02:31N 35°29' E 139°44'1 1.3
2015-Feb-26 01:33N 35°28' E 139°45'1 0.8
2015-Feb-26 00:33N 35°29' E 139°46'5 0.8
2015-Feb-25 18:16N 35°27' E 139°40'0 0.0
2015-Feb-25 17:34N 35°27' E 139°40'0 0.0
2015-Feb-25 16:34N 35°27' E 139°40'0 0.0
2015-Feb-25 15:34N 35°27' E 139°40'0 0.0
2015-Feb-25 14:34N 35°27' E 139°40'0 0.0
2015-Feb-25 13:34N 35°27' E 139°40'0 0.0
2015-Feb-25 12:34N 35°27' E 139°40'0 0.0
2015-Feb-25 11:33N 35°27' E 139°40'0 0.0
2015-Feb-25 10:33N 35°27' E 139°40'0 0.0
2015-Feb-25 09:33N 35°27' E 139°40'0 0.0
2015-Feb-25 08:34N 35°27' E 139°40'0 0.0
2015-Feb-25 07:33N 35°27' E 139°40'0 0.0
2015-Feb-25 06:33N 35°27' E 139°40'0 0.0
2015-Feb-25 05:33N 35°27' E 139°40'0 0.0
2015-Feb-25 04:33N 35°27' E 139°40'0 0.0
2015-Feb-25 03:33N 35°27' E 139°40'0 0.0
2015-Feb-25 02:33N 35°27' E 139°40'0 0.0
2015-Feb-25 01:33N 35°27' E 139°40'0 0.0
2015-Feb-25 00:33N 35°27' E 139°40'0 0.1
2015-Feb-24 23:33N 35°27' E 139°40'3 2.5
2015-Feb-24 22:33N 35°26' E 139°42'2 2.0
2015-Feb-24 21:33N 35°28' E 139°44'2 2.1
2015-Feb-24 20:33N 35°27' E 139°42'1 1.3
2015-Feb-24 19:33N 35°28' E 139°41'0 0.0
2015-Feb-24 18:33N 35°28' E 139°41'0 0.0
2015-Feb-24 17:33N 35°28' E 139°41'0 0.0
2015-Feb-24 16:33N 35°28' E 139°41'0 0.0
2015-Feb-24 15:33N 35°28' E 139°41'1 1.2
2015-Feb-24 14:33N 35°28' E 139°42'1 1.0
2015-Feb-24 13:33N 35°27' E 139°42'0 0.0
2015-Feb-24 12:33N 35°27' E 139°42'0 0.0
2015-Feb-24 11:33N 35°27' E 139°42'1 0.7
2015-Feb-24 10:33N 35°28' E 139°42'0 0.4
2015-Feb-24 09:33N 35°29' E 139°42'2 1.8
2015-Feb-24 08:33N 35°27' E 139°42'0 0.0
2015-Feb-24 07:33N 35°27' E 139°42'2 2.0
2015-Feb-24 06:33N 35°25' E 139°41'2 2.0
2015-Feb-24 05:33N 35°27' E 139°39'0 0.0
2015-Feb-24 04:33N 35°27' E 139°39'0 0.0
2015-Feb-24 03:33N 35°27' E 139°39'0 0.0
2015-Feb-24 02:33N 35°27' E 139°39'0 0.0
2015-Feb-24 01:33N 35°27' E 139°39'0 0.0
2015-Feb-24 00:33N 35°27' E 139°39'0 0.0
2015-Feb-23 23:33N 35°27' E 139°39'2 1.5
2015-Feb-23 22:33N 35°27' E 139°41'1 1.4
2015-Feb-23 21:33N 35°27' E 139°39'1 0.1
2015-Feb-23 04:09N 35°27' E 139°41'1 1.8
2015-Feb-23 03:33N 35°28' E 139°40'2 1.8
2015-Feb-23 02:33N 35°27' E 139°42'0 0.0
2015-Feb-23 01:33N 35°27' E 139°42'0 0.0
2015-Feb-23 00:33N 35°27' E 139°42'0 0.0
2015-Feb-22 23:33N 35°27' E 139°42'13 9.1
2015-Feb-22 22:07N 35°30' E 139°58'8 9.9
2015-Feb-22 21:20N 35°27' E 139°49'8 9.8
2015-Feb-22 20:33N 35°27' E 139°40'0 0.3
2015-Feb-22 19:33N 35°27' E 139°40'0 0.0
2015-Feb-22 18:33N 35°27' E 139°40'0 0.0
2015-Feb-22 17:33N 35°27' E 139°40'0 0.0
2015-Feb-22 16:33N 35°27' E 139°40'0 0.0
2015-Feb-22 15:33N 35°27' E 139°40'0 0.0
2015-Feb-22 14:33N 35°27' E 139°40'0 0.0
2015-Feb-22 13:33N 35°27' E 139°40'0 0.0
2015-Feb-22 12:33N 35°27' E 139°40'0 0.0
2015-Feb-22 11:33N 35°27' E 139°40'0 0.0
2015-Feb-22 10:33N 35°27' E 139°40'0 0.0
2015-Feb-22 09:33N 35°27' E 139°40'0 0.0
2015-Feb-22 08:32N 35°27' E 139°40'0 0.0
2015-Feb-22 07:33N 35°27' E 139°40'1 1.2
2015-Feb-22 06:33N 35°28' E 139°40'6 5.5
2015-Feb-22 05:33N 35°31' E 139°46'1 0.3
2015-Feb-22 03:12N 35°30' E 139°46'0 0.1
2015-Feb-22 02:33N 35°30' E 139°46'0 0.0
2015-Feb-22 01:30N 35°30' E 139°46'0 0.5
2015-Feb-22 00:33N 35°31' E 139°46'1 0.7
2015-Feb-21 23:33N 35°31' E 139°46'5 4.8
2015-Feb-21 22:33N 35°28' E 139°41'2 2.0
2015-Feb-21 21:33N 35°27' E 139°40'0 0.0
2015-Feb-21 20:33N 35°27' E 139°40'0 0.0
2015-Feb-21 19:34N 35°27' E 139°40'0 0.0
2015-Feb-21 18:33N 35°27' E 139°40'0 0.0
2015-Feb-21 17:33N 35°27' E 139°40'0 0.0
2015-Feb-21 16:33N 35°27' E 139°40'0 0.0
2015-Feb-21 15:34N 35°27' E 139°40'0 0.0
2015-Feb-21 14:33N 35°27' E 139°40'0 0.0
2015-Feb-21 13:33N 35°27' E 139°40'0 0.0
2015-Feb-21 12:34N 35°27' E 139°40'0 0.0
2015-Feb-21 11:34N 35°27' E 139°40'0 0.0
2015-Feb-21 10:33N 35°27' E 139°40'0 0.0
2015-Feb-21 09:34N 35°27' E 139°40'0 0.0
2015-Feb-21 08:34N 35°27' E 139°40'0 0.0
2015-Feb-21 07:34N 35°27' E 139°40'0 0.0
2015-Feb-21 06:34N 35°27' E 139°40'0 0.0
2015-Feb-21 05:33N 35°27' E 139°40'0 0.0
2015-Feb-21 04:33N 35°27' E 139°40'0 0.0
2015-Feb-21 03:34N 35°27' E 139°40'0 0.0
2015-Feb-21 02:34N 35°27' E 139°40'0 0.0
2015-Feb-21 01:34N 35°27' E 139°40'0 0.0
2015-Feb-21 00:34N 35°27' E 139°40'0 0.0
2015-Feb-20 23:34N 35°27' E 139°40'1 0.5
2015-Feb-20 22:34N 35°27' E 139°39'3 2.5
2015-Feb-20 21:34N 35°26' E 139°42'0 0.4
2015-Feb-20 20:34N 35°27' E 139°42'0 0.0
2015-Feb-20 19:34N 35°27' E 139°42'1 1.4
2015-Feb-20 18:34N 35°27' E 139°40'1 0.6
2015-Feb-20 17:33N 35°26' E 139°41'1 0.8
2015-Feb-20 16:34N 35°26' E 139°42'0 0.0
2015-Feb-20 15:33N 35°26' E 139°42'0 0.0
2015-Feb-20 14:34N 35°26' E 139°42'0 0.0
2015-Feb-20 13:34N 35°26' E 139°42'0 0.0
2015-Feb-20 12:33N 35°26' E 139°42'0 0.0
2015-Feb-20 11:34N 35°26' E 139°42'0 0.3
2015-Feb-20 10:33N 35°26' E 139°41'2 2.2
2015-Feb-20 09:34N 35°27' E 139°39'2 2.1
2015-Feb-20 08:33N 35°28' E 139°42'1 1.4
2015-Feb-20 07:34N 35°27' E 139°40'1 0.7
2015-Feb-20 06:34N 35°27' E 139°40'0 0.0
2015-Feb-20 05:34N 35°27' E 139°40'0 0.0
2015-Feb-20 04:33N 35°27' E 139°40'0 0.0
2015-Feb-20 03:33N 35°27' E 139°40'0 0.0
2015-Feb-20 02:34N 35°27' E 139°40'0 0.0
2015-Feb-20 01:34N 35°27' E 139°40'0 0.0
2015-Feb-20 00:33N 35°27' E 139°40'0 0.0
2015-Feb-19 23:33N 35°27' E 139°40'0 0.0
2015-Feb-19 22:34N 35°27' E 139°40'0 0.0
2015-Feb-19 21:34N 35°27' E 139°40'0 0.0
2015-Feb-19 20:34N 35°27' E 139°40'0 0.0
2015-Feb-19 19:34N 35°27' E 139°40'0 0.0
2015-Feb-19 18:34N 35°27' E 139°40'0 0.0
2015-Feb-19 17:33N 35°27' E 139°40'0 0.0
2015-Feb-19 16:34N 35°27' E 139°40'0 0.0
2015-Feb-19 15:33N 35°27' E 139°40'0 0.0
2015-Feb-19 14:33N 35°27' E 139°40'0 0.0
2015-Feb-19 13:34N 35°27' E 139°40'0 0.0
2015-Feb-19 12:34N 35°27' E 139°40'0 0.0
2015-Feb-19 11:34N 35°27' E 139°40'0 0.0
2015-Feb-19 10:34N 35°27' E 139°40'0 0.0
2015-Feb-19 09:34N 35°27' E 139°40'0 0.0
2015-Feb-19 08:34N 35°27' E 139°40'0 0.0
2015-Feb-19 07:33N 35°27' E 139°40'1 0.6
2015-Feb-19 06:33N 35°27' E 139°40'0 0.4
2015-Feb-19 05:33N 35°28' E 139°41'0 0.0
2015-Feb-19 04:33N 35°28' E 139°41'0 0.0
2015-Feb-19 03:33N 35°28' E 139°41'0 0.0
2015-Feb-19 02:33N 35°28' E 139°41'0 0.0
2015-Feb-19 01:34N 35°28' E 139°41'0 0.0
2015-Feb-19 00:33N 35°28' E 139°41'1 1.5
2015-Feb-18 23:33N 35°27' E 139°39'3 3.2
2015-Feb-18 22:33N 35°26' E 139°42'2 2.3
2015-Feb-18 21:33N 35°27' E 139°40'0 0.0
2015-Feb-18 20:33N 35°27' E 139°40'0 0.0
2015-Feb-18 19:33N 35°27' E 139°40'0 0.0
2015-Feb-18 18:33N 35°27' E 139°40'0 0.0
2015-Feb-18 17:33N 35°27' E 139°40'0 0.0
2015-Feb-18 16:33N 35°27' E 139°40'0 0.0
2015-Feb-18 15:33N 35°27' E 139°40'0 0.0
2015-Feb-18 14:33N 35°27' E 139°40'0 0.0
2015-Feb-18 13:33N 35°27' E 139°40'0 0.0
2015-Feb-18 12:33N 35°27' E 139°40'0 0.0
2015-Feb-18 11:33N 35°27' E 139°40'0 0.0
2015-Feb-18 10:33N 35°27' E 139°40'0 0.0
2015-Feb-18 09:33N 35°27' E 139°40'0 0.0
2015-Feb-18 08:33N 35°27' E 139°40'0 0.0
2015-Feb-18 07:33N 35°27' E 139°40'0 0.0
2015-Feb-18 06:33N 35°27' E 139°40'2 1.6
2015-Feb-18 05:33N 35°27' E 139°41'10 9.9
2015-Feb-18 04:33N 35°17' E 139°41'0 0.2
2015-Feb-18 03:33N 35°16' E 139°41'0 0.0
2015-Feb-18 02:30N 35°16' E 139°41'0 0.0
2015-Feb-18 01:25N 35°16' E 139°41'  

Dump ship's entire track history